TFM - Tactical Decision Aid (Experimental) INFO Settings
ID: Runway Winds: CIG/VIS Threshold: METAR Board: Map:

KDFW - Dallas/Fort Worth Intl

Updated at: 0643 UTC 03 Dec 2016
Latest TAF at: 0535 UTC 03 Dec 2016

TAF Board

Time0553Z03/07Z03/08Z03/09Z03/10Z03/11Z03/12Z03/13Z03/14Z03/15Z03/16Z03/17Z03/18Z03/19Z
TypeOBSPRVLPRVLPRVLPRVLPRVLPRVLPRVLPRVLPRVLPRVLPRVLPRVLPRVL
VIS10>6>6>6>6>655552222
CIG707070252525121212125555
CoverOVCOVCOVCOVCOVCOVCOVCOVCOVCOVCOVCOVCOVCOVC
FltCatVFRVFRVFRMVFRMVFRMVFRMVFRMVFRMVFRMVFRIFRIFRIFRIFR
WX---RA-RA-RA-RA-RARA VCTSRA VCTSRA VCTSRA VCTSSHRA BRSHRA BRSHRA BRSHRA BR
WDir10090908080807070707060606060
WSpd610101212121414141412121212
WGst----------------------------
TAF
KDFW 030535Z 0306/0412 09010KT P6SM -RA OVC070
  FM030900 08012KT P6SM -RA OVC025
  FM031200 07014KT 5SM RA VCTS OVC012CB
  FM031600 06012KT 2SM SHRA BR OVC005
  FM032200 04013KT 4SM BR OVC003


METAR
KDFW 030553Z 10006KT 10SM OVC070 14/03 A3013 RMK AO2 SLP200 60001 T01390028 10161 20128 401830061 55008

TAF/METAR Board Legend

Potential Impact
  None Marginal Slight Moderate High
Visibility (sm) >5 3≤X≤5 1≤X<3 0.5≤X<1 <0.5
Ceiling (100 ft) >30 10≤X≤30 4≤X<10 2≤X<4 <2
Wind Speed (kt) <10 10≤X<20 20≤X<30 ≥30
Wind Gust (kt) <15 15≤X<25 25≤X<35 ≥35
Weather No Wx Reported VCTS -TS,-FZRA TS,FZRA +TS,+FZRA




Page loaded:  06:43 UTC  |   10:43 PM Pacific  |   11:43 PM Mountain  |   12:43 AM Central  |   01:43 AM Eastern